METAR Data
IDs: Format: Raw Decoded Include TAF

Data at: 0319 UTC 25 Feb 2021

SAME 250300Z 32003KT CAVOK 26/16 Q1015